Time;durP1;ratioP1;P1;durP2;ratioP2;P2;SDS_P1;SDS_P2;PMS_P1;PMS_P2;Temp;Humidity;BMP_temperature;BMP_pressure;BME280_temperature;BME280_humidity;BME280_pressure;Samples;Min_cycle;Max_cycle;Signal;HPM_P1;HPM_P2
2022/04/29 00:00:56;;;;;;;11.05;9.95;;;19.80;99.90;;;;;;5066410;28;20762;-83
2022/04/29 00:03:24;;;;;;;10.05;9.05;;;19.80;99.90;;;;;;5067932;28;20846;-83
2022/04/29 00:05:53;;;;;;;9.48;8.50;;;20.00;99.90;;;;;;5067595;28;20486;-83
2022/04/29 00:08:20;;;;;;;8.80;8.00;;;20.20;99.90;;;;;;5067659;28;20455;-83
2022/04/29 00:10:47;;;;;;;7.82;7.22;;;20.50;99.90;;;;;;5067644;28;20857;-83
2022/04/29 00:13:16;;;;;;;7.93;7.00;;;20.80;99.90;;;;;;5067666;28;20373;-82
2022/04/29 00:15:43;;;;;;;8.20;7.28;;;20.90;99.90;;;;;;5067489;28;20374;-83
2022/04/29 00:18:11;;;;;;;7.38;6.68;;;20.90;99.90;;;;;;5067391;28;20543;-83
2022/04/29 00:20:38;;;;;;;6.40;4.63;;;21.00;99.90;;;;;;5067150;28;20799;-83
2022/04/29 00:23:06;;;;;;;5.25;3.63;;;21.10;99.90;;;;;;5067124;28;20413;-83
2022/04/29 00:25:33;;;;;;;3.75;3.40;;;21.10;99.90;;;;;;5067320;28;20382;-83
2022/04/29 00:28:00;;;;;;;5.07;2.97;;;21.10;99.90;;;;;;5067225;28;20374;-83
2022/04/29 00:30:27;;;;;;;3.95;3.30;;;21.10;99.90;;;;;;5067288;28;20450;-84
2022/04/29 00:32:54;;;;;;;2.80;2.50;;;21.10;99.90;;;;;;5067205;28;20371;-82
2022/04/29 00:35:22;;;;;;;3.88;3.10;;;21.00;99.90;;;;;;5065867;28;20398;-81
2022/04/29 00:37:54;;;;;;;2.90;2.38;;;21.10;99.90;;;;;;5067152;28;20385;-83
2022/04/29 00:40:24;;;;;;;2.90;2.50;;;21.20;99.90;;;;;;5067173;28;20402;-82
2022/04/29 00:42:51;;;;;;;3.25;2.78;;;21.20;99.90;;;;;;5066997;28;20461;-83
2022/04/29 00:45:20;;;;;;;5.07;3.25;;;21.10;99.90;;;;;;5067223;28;20389;-85
2022/04/29 00:47:48;;;;;;;5.65;3.50;;;21.10;99.90;;;;;;5066880;28;20461;-85
2022/04/29 00:50:19;;;;;;;4.03;3.03;;;21.00;99.90;;;;;;5067056;28;20390;-84
2022/04/29 00:52:48;;;;;;;4.05;3.20;;;21.00;99.90;;;;;;5067035;28;20401;-85
2022/04/29 00:55:16;;;;;;;3.85;2.80;;;21.30;99.90;;;;;;5067041;28;20750;-85
2022/04/29 00:58:02;;;;;;;5.33;2.90;;;21.50;99.90;;;;;;5067083;28;20368;-83
2022/04/29 01:00:29;;;;;;;6.90;3.15;;;21.90;99.90;;;;;;5066977;28;20410;-83
2022/04/29 01:02:57;;;;;;;4.05;3.38;;;22.10;99.90;;;;;;5066967;28;20370;-86
2022/04/29 01:05:25;;;;;;;4.60;3.00;;;22.20;99.90;;;;;;5067085;28;20427;-84
2022/04/29 01:07:52;;;;;;;5.53;3.07;;;22.10;99.90;;;;;;5066922;28;20393;-84
2022/04/29 01:10:22;;;;;;;3.47;2.80;;;22.10;99.90;;;;;;5067250;28;20436;-83
2022/04/29 01:12:56;;;;;;;2.97;2.40;;;22.10;99.90;;;;;;5067188;28;20734;-85
2022/04/29 01:15:23;;;;;;;4.28;2.40;;;22.10;99.90;;;;;;5066832;28;20378;-83
2022/04/29 01:17:56;;;;;;;3.08;1.95;;;22.10;99.90;;;;;;5066962;28;20943;-83
2022/04/29 01:20:29;;;;;;;4.10;2.03;;;22.20;99.90;;;;;;5066420;28;20406;-85
2022/04/29 01:22:56;;;;;;;3.88;2.10;;;22.30;99.90;;;;;;5066209;28;20389;-84
2022/04/29 01:25:23;;;;;;;2.47;1.92;;;22.40;99.90;;;;;;5068588;28;20378;-84
2022/04/29 01:27:51;;;;;;;5.05;2.00;;;22.40;99.90;;;;;;5066945;28;20366;-85
2022/04/29 01:30:18;;;;;;;3.22;2.10;;;22.60;99.90;;;;;;5066454;28;20439;-83
2022/04/29 01:32:45;;;;;;;2.67;2.00;;;22.70;99.90;;;;;;5066318;28;20397;-85
2022/04/29 01:35:13;;;;;;;2.77;2.00;;;22.80;99.90;;;;;;5066594;28;20410;-84
2022/04/29 01:37:42;;;;;;;3.22;2.40;;;22.90;99.90;;;;;;5066386;28;20380;-85
2022/04/29 01:40:10;;;;;;;3.70;2.30;;;22.80;99.90;;;;;;5066259;28;20455;-85
2022/04/29 01:42:38;;;;;;;2.65;2.10;;;22.80;99.90;;;;;;5066578;28;20590;-85
2022/04/29 01:45:05;;;;;;;3.35;2.22;;;22.80;99.90;;;;;;5066199;28;20381;-84
2022/04/29 01:47:32;;;;;;;3.23;2.40;;;22.90;99.90;;;;;;5067252;28;20870;-83
2022/04/29 01:49:59;;;;;;;2.80;2.50;;;22.90;99.90;;;;;;5068273;28;20382;-83
2022/04/29 01:52:27;;;;;;;3.33;2.30;;;22.80;99.90;;;;;;5068171;28;20375;-84
2022/04/29 01:54:54;;;;;;;2.78;2.25;;;22.70;99.90;;;;;;5068088;28;20431;-84
2022/04/29 01:57:21;;;;;;;2.90;2.40;;;22.80;99.90;;;;;;5071969;28;20383;-85
2022/04/29 01:59:48;;;;;;;2.55;2.35;;;22.50;99.90;;;;;;5082515;28;20409;-83
2022/04/29 02:02:16;;;;;;;3.95;2.65;;;23.20;99.90;;;;;;5070027;28;20425;-85
2022/04/29 02:04:43;;;;;;;3.60;2.60;;;23.00;99.90;;;;;;5070112;28;20742;-84
2022/04/29 02:07:10;;;;;;;3.20;2.50;;;23.10;99.90;;;;;;5071673;28;20377;-85
2022/04/29 02:09:37;;;;;;;4.93;2.65;;;23.20;99.90;;;;;;5070085;28;20376;-85
2022/04/29 02:12:04;;;;;;;3.25;2.30;;;23.40;99.90;;;;;;5069958;28;20378;-84
2022/04/29 02:14:37;;;;;;;5.13;2.40;;;23.70;99.90;;;;;;5070010;28;20467;-85
2022/04/29 02:17:06;;;;;;;4.22;2.50;;;23.60;99.90;;;;;;5068725;28;20439;-85
2022/04/29 02:19:34;;;;;;;3.72;2.38;;;23.50;99.90;;;;;;5069848;28;20410;-83
2022/04/29 02:22:03;;;;;;;4.93;2.40;;;23.30;99.90;;;;;;5069799;28;20753;-84
2022/04/29 02:24:30;;;;;;;3.03;2.10;;;23.10;99.90;;;;;;5069925;28;20420;-85
2022/04/29 02:26:59;;;;;;;2.63;2.20;;;23.10;99.90;;;;;;5069692;28;20391;-84
2022/04/29 02:29:29;;;;;;;2.85;2.10;;;23.20;99.90;;;;;;5068424;28;20382;-84
2022/04/29 02:31:59;;;;;;;4.70;1.90;;;23.30;99.90;;;;;;5069554;28;20939;-84
2022/04/29 02:34:27;;;;;;;3.33;2.17;;;23.60;99.90;;;;;;5069681;28;20745;-85
2022/04/29 02:36:54;;;;;;;3.47;2.17;;;24.10;99.90;;;;;;5069595;28;20380;-84
2022/04/29 02:39:22;;;;;;;3.00;2.20;;;24.80;99.90;;;;;;5069501;28;20877;-86
2022/04/29 02:41:54;;;;;;;3.63;2.20;;;25.00;99.90;;;;;;5069325;28;20382;-84
2022/04/29 02:44:21;;;;;;;5.95;2.15;;;25.10;99.90;;;;;;5069398;28;20362;-85
2022/04/29 02:49:37;;;;;;;5.57;2.20;;;24.80;99.90;;;;;;5069296;28;20443;-86
2022/04/29 02:52:05;;;;;;;1.80;1.65;;;25.00;99.90;;;;;;5069313;28;20397;-84
2022/04/29 02:54:32;;;;;;;4.13;1.77;;;26.00;99.90;;;;;;5069242;28;20389;-85
2022/04/29 02:57:00;;;;;;;2.78;1.80;;;26.50;99.90;;;;;;5069323;28;20392;-84
2022/04/29 02:59:27;;;;;;;3.78;1.70;;;26.80;99.90;;;;;;5069060;28;20390;-85
2022/04/29 03:01:54;;;;;;;2.85;1.80;;;27.60;99.90;;;;;;5069069;28;20854;-84
2022/04/29 03:04:21;;;;;;;2.55;1.80;;;27.60;99.90;;;;;;5068927;28;20453;-83
2022/04/29 03:06:48;;;;;;;3.70;1.80;;;28.10;99.90;;;;;;5068976;28;20428;-85
2022/04/29 03:09:15;;;;;;;3.15;1.80;;;28.70;99.90;;;;;;5068777;28;20370;-83
2022/04/29 03:11:42;;;;;;;2.50;1.60;;;28.60;99.90;;;;;;5068448;28;20383;-84
2022/04/29 03:14:09;;;;;;;2.58;1.70;;;28.80;99.90;;;;;;5069084;28;20370;-85
2022/04/29 03:16:36;;;;;;;3.63;1.50;;;29.70;99.90;;;;;;5068673;28;20420;-85
2022/04/29 03:19:04;;;;;;;1.58;1.35;;;30.90;98.50;;;;;;5068622;28;20377;-85
2022/04/29 03:21:33;;;;;;;2.63;1.47;;;31.30;96.60;;;;;;5068506;28;20401;-84
2022/04/29 03:24:01;;;;;;;3.00;1.60;;;31.70;93.40;;;;;;5068741;28;20382;-85
2022/04/29 03:26:29;;;;;;;1.50;1.40;;;31.20;94.00;;;;;;5068707;28;20390;-84
2022/04/29 03:28:56;;;;;;;2.10;1.48;;;30.70;93.80;;;;;;5068532;28;20465;-84
2022/04/29 03:31:23;;;;;;;1.83;1.58;;;31.10;93.90;;;;;;5069056;28;20398;-85
2022/04/29 03:33:50;;;;;;;2.10;1.60;;;31.80;91.70;;;;;;5068814;28;20397;-86
2022/04/29 03:36:20;;;;;;;2.55;1.70;;;31.70;90.40;;;;;;5068116;28;20399;-85
2022/04/29 03:38:47;;;;;;;2.30;1.70;;;31.90;90.30;;;;;;5068236;28;20386;-84
2022/04/29 03:41:14;;;;;;;3.60;1.83;;;32.30;89.60;;;;;;5068300;28;20410;-83
2022/04/29 03:43:41;;;;;;;4.00;1.80;;;32.20;87.30;;;;;;5068165;28;20821;-84
2022/04/29 03:46:07;;;;;;;3.92;1.75;;;31.10;90.60;;;;;;5068244;28;20458;-84
2022/04/29 03:51:20;;;;;;;4.43;2.00;;;31.70;87.40;;;;;;5068271;28;20464;-85
2022/04/29 03:53:51;;;;;;;2.15;1.83;;;31.70;87.10;;;;;;5068267;28;20370;-84
2022/04/29 03:56:18;;;;;;;2.42;2.00;;;31.90;87.50;;;;;;5068412;28;20508;-84
2022/04/29 03:58:45;;;;;;;2.77;2.10;;;32.00;83.20;;;;;;5067842;28;20465;-84
2022/04/29 04:01:13;;;;;;;2.83;1.98;;;31.50;86.00;;;;;;5067760;28;20500;-84
2022/04/29 04:03:40;;;;;;;3.33;2.20;;;31.80;84.20;;;;;;5067779;28;20375;-84
2022/04/29 04:08:54;;;;;;;3.00;2.00;;;31.00;84.90;;;;;;5067805;28;20420;-84
2022/04/29 04:11:21;;;;;;;3.15;2.00;;;31.10;86.50;;;;;;5067724;28;20458;-85
2022/04/29 04:13:48;;;;;;;3.28;2.03;;;31.50;87.70;;;;;;5067637;28;20382;-84
2022/04/29 04:16:15;;;;;;;3.35;2.45;;;32.00;84.40;;;;;;5067743;28;20414;-84
2022/04/29 04:18:41;;;;;;;3.27;2.53;;;31.40;84.00;;;;;;5066223;28;20423;-83
2022/04/29 04:21:08;;;;;;;2.92;2.00;;;30.30;88.10;;;;;;5067347;28;20464;-83
2022/04/29 04:23:35;;;;;;;2.47;1.98;;;30.70;85.20;;;;;;5065375;28;20402;-83
2022/04/29 04:26:02;;;;;;;3.45;1.95;;;31.30;84.40;;;;;;5067346;28;20439;-84
2022/04/29 04:28:29;;;;;;;3.22;2.10;;;32.10;79.60;;;;;;5067150;28;20374;-84
2022/04/29 04:30:56;;;;;;;3.25;2.00;;;32.60;78.30;;;;;;5066895;28;20475;-85
2022/04/29 04:33:23;;;;;;;2.72;1.95;;;33.10;76.50;;;;;;5067049;28;20386;-84
2022/04/29 04:35:50;;;;;;;3.00;1.92;;;33.80;72.90;;;;;;5068640;28;20830;-87
2022/04/29 04:38:17;;;;;;;2.45;1.90;;;34.10;71.10;;;;;;5069324;28;20955;-86
2022/04/29 04:40:44;;;;;;;2.75;2.10;;;34.30;67.70;;;;;;5066093;28;20406;-87
2022/04/29 04:43:11;;;;;;;2.40;1.80;;;34.30;67.70;;;;;;5067217;28;20791;-88
2022/04/29 04:45:39;;;;;;;2.50;2.10;;;34.30;67.80;;;;;;5067087;28;20409;-87
2022/04/29 04:48:06;;;;;;;2.83;1.90;;;33.70;69.70;;;;;;5067129;28;20475;-85
2022/04/29 04:50:33;;;;;;;2.45;1.70;;;33.00;71.40;;;;;;5067138;28;20378;-86
2022/04/29 04:53:00;;;;;;;2.83;2.00;;;33.10;70.40;;;;;;5067072;28;20375;-86
2022/04/29 04:55:27;;;;;;;2.92;1.75;;;33.40;70.40;;;;;;5066843;28;20409;-86
2022/04/29 04:57:54;;;;;;;2.78;1.88;;;33.70;70.30;;;;;;5065478;28;20382;-83
2022/04/29 05:00:21;;;;;;;2.40;1.77;;;33.60;71.10;;;;;;5066915;28;20434;-88
2022/04/29 05:02:48;;;;;;;3.20;1.93;;;33.50;69.30;;;;;;5067094;28;20869;-85
2022/04/29 05:05:15;;;;;;;2.33;2.13;;;33.70;70.10;;;;;;5067136;28;20378;-87
2022/04/29 05:07:42;;;;;;;2.15;2.00;;;33.30;70.10;;;;;;5067147;28;20398;-84
2022/04/29 05:10:10;;;;;;;2.55;1.83;;;32.80;72.50;;;;;;5066928;28;20370;-84
2022/04/29 05:12:40;;;;;;;2.97;2.00;;;32.40;73.70;;;;;;5066561;28;20388;-83
2022/04/29 05:15:08;;;;;;;1.75;1.63;;;32.10;73.80;;;;;;5067024;28;20443;-84
2022/04/29 05:17:38;;;;;;;2.30;1.80;;;31.40;75.50;;;;;;5066939;28;20793;-83
2022/04/29 05:20:07;;;;;;;3.80;1.80;;;30.70;77.60;;;;;;5066501;28;20398;-83
2022/04/29 05:22:34;;;;;;;2.80;1.90;;;29.70;80.70;;;;;;5066521;28;20447;-83
2022/04/29 05:25:01;;;;;;;2.53;1.90;;;29.40;85.00;;;;;;5066754;28;20476;-86
2022/04/29 05:27:31;;;;;;;2.30;1.70;;;29.40;86.50;;;;;;5066494;28;21356;-85
2022/04/29 05:29:59;;;;;;;2.17;1.43;;;29.50;85.80;;;;;;5066796;28;21261;-84
2022/04/29 05:32:26;;;;;;;3.50;1.40;;;29.30;88.70;;;;;;5066818;28;20374;-86
2022/04/29 05:34:56;;;;;;;3.50;1.55;;;29.30;90.20;;;;;;5068436;28;20377;-84
2022/04/29 05:37:24;;;;;;;2.13;1.30;;;29.20;89.60;;;;;;5071022;28;20370;-85
2022/04/29 05:42:40;;;;;;;2.60;1.50;;;28.40;92.70;;;;;;4989056;28;20380;-83
2022/04/29 05:45:12;;;;;;;4.30;1.30;;;28.20;94.50;;;;;;4989088;28;20401;-88
2022/04/29 05:47:39;;;;;;;3.45;1.23;;;27.90;95.80;;;;;;4989082;28;20377;-84
2022/04/29 05:50:07;;;;;;;3.25;1.05;;;27.50;97.70;;;;;;4989175;28;20396;-86
2022/04/29 05:52:34;;;;;;;2.78;1.10;;;27.40;98.30;;;;;;4988797;28;20385;-82
2022/04/29 05:55:01;;;;;;;4.60;1.33;;;27.30;98.60;;;;;;4988930;28;20395;-85
2022/04/29 05:57:28;;;;;;;4.20;1.40;;;27.20;99.00;;;;;;4988414;28;20388;-83
2022/04/29 05:59:56;;;;;;;3.37;1.20;;;27.00;99.90;;;;;;4988249;28;20407;-83
2022/04/29 06:02:24;;;;;;;2.88;1.10;;;26.90;99.90;;;;;;4988642;28;20447;-85
2022/04/29 06:04:51;;;;;;;2.23;1.10;;;26.80;99.90;;;;;;4989013;28;20844;-82
2022/04/29 06:07:18;;;;;;;2.22;1.10;;;26.70;99.90;;;;;;4988732;28;20427;-84
2022/04/29 06:09:45;;;;;;;3.90;1.20;;;26.50;99.90;;;;;;4989394;28;20381;-88
2022/04/29 06:12:13;;;;;;;1.90;1.10;;;26.40;99.90;;;;;;4988320;28;20741;-85
2022/04/29 06:14:41;;;;;;;2.75;1.20;;;26.40;99.90;;;;;;4988361;28;20408;-85
2022/04/29 06:17:08;;;;;;;3.25;1.27;;;26.40;99.90;;;;;;4988372;28;20793;-82
2022/04/29 06:19:35;;;;;;;2.80;1.10;;;26.40;99.90;;;;;;5015150;28;20490;-83
2022/04/29 06:22:04;;;;;;;1.42;1.02;;;26.30;99.90;;;;;;5049933;28;20410;-85
2022/04/29 06:24:35;;;;;;;2.70;1.20;;;26.30;99.90;;;;;;5058821;28;20390;-83
2022/04/29 06:27:03;;;;;;;2.78;1.20;;;26.20;99.90;;;;;;5069894;28;20377;-83
2022/04/29 06:29:30;;;;;;;1.65;1.10;;;26.10;99.90;;;;;;5070039;28;20370;-82
2022/04/29 06:31:57;;;;;;;2.75;1.20;;;26.00;99.90;;;;;;5069759;28;20511;-82
2022/04/29 06:34:24;;;;;;;2.15;1.20;;;26.00;99.90;;;;;;5069856;28;20403;-84
2022/04/29 06:36:51;;;;;;;3.07;1.30;;;26.00;99.90;;;;;;5069783;28;20427;-83
2022/04/29 06:39:18;;;;;;;3.92;1.30;;;25.80;99.90;;;;;;5069265;28;20444;-83
2022/04/29 06:41:45;;;;;;;2.97;1.35;;;25.70;99.90;;;;;;5069841;28;20831;-84
2022/04/29 06:44:12;;;;;;;3.92;1.40;;;25.50;99.90;;;;;;5069564;28;20374;-84
2022/04/29 06:46:39;;;;;;;3.93;1.43;;;25.40;99.90;;;;;;5069142;28;20375;-82
2022/04/29 06:49:05;;;;;;;3.78;1.50;;;25.30;99.90;;;;;;5068999;28;20421;-82
2022/04/29 06:51:32;;;;;;;5.53;1.70;;;25.20;99.90;;;;;;5069783;28;20371;-83
2022/04/29 06:53:59;;;;;;;3.95;1.40;;;25.10;99.90;;;;;;5069497;28;20746;-83
2022/04/29 06:56:26;;;;;;;2.92;1.30;;;25.00;99.90;;;;;;5069376;28;21328;-85
2022/04/29 06:58:53;;;;;;;1.83;1.20;;;24.90;99.90;;;;;;5069467;28;20462;-83
2022/04/29 07:01:20;;;;;;;3.70;1.40;;;24.70;99.90;;;;;;5068889;28;20487;-82
2022/04/29 07:03:48;;;;;;;2.50;1.30;;;24.60;99.90;;;;;;5069305;28;20400;-83
2022/04/29 07:06:15;;;;;;;1.80;1.30;;;24.40;99.90;;;;;;5069741;28;20378;-84
2022/04/29 07:08:43;;;;;;;3.03;1.40;;;24.30;99.90;;;;;;5069078;28;20445;-84
2022/04/29 07:11:10;;;;;;;5.38;1.30;;;24.20;99.90;;;;;;5069042;28;20876;-86
2022/04/29 07:13:37;;;;;;;3.17;1.40;;;24.10;99.90;;;;;;5068971;28;20379;-85
2022/04/29 07:16:04;;;;;;;2.40;1.30;;;24.00;99.90;;;;;;5069072;28;20381;-84
2022/04/29 07:18:31;;;;;;;2.78;1.60;;;23.80;99.90;;;;;;5069337;28;20402;-85
2022/04/29 07:20:58;;;;;;;6.37;1.70;;;23.70;99.90;;;;;;5056169;28;20469;-82
2022/04/29 07:23:25;;;;;;;2.57;1.50;;;23.60;99.90;;;;;;5070072;28;20417;-83
2022/04/29 07:25:52;;;;;;;4.07;1.60;;;23.40;99.90;;;;;;5061912;28;20828;-86
2022/04/29 07:28:19;;;;;;;3.20;1.85;;;23.30;99.90;;;;;;5049926;28;20434;-88
2022/04/29 07:30:49;;;;;;;2.28;1.65;;;23.20;99.90;;;;;;5047869;28;20383;-84
2022/04/29 07:33:16;;;;;;;5.15;1.80;;;23.10;99.90;;;;;;5048951;28;20375;-80
2022/04/29 07:43:58;;;;;;;3.05;1.90;;;22.70;99.90;;;;;;5056335;28;20379;-83
2022/04/29 07:46:25;;;;;;;4.30;2.00;;;22.60;99.90;;;;;;5067903;28;20394;-83
2022/04/29 07:48:52;;;;;;;3.35;2.10;;;22.50;99.90;;;;;;5068094;28;20371;-84
2022/04/29 07:51:19;;;;;;;5.20;2.60;;;22.50;99.90;;;;;;5068176;28;20463;-89
2022/04/29 07:53:46;;;;;;;4.50;2.83;;;22.40;99.90;;;;;;5068256;28;20545;-82
2022/04/29 07:56:13;;;;;;;4.72;3.10;;;22.40;99.90;;;;;;5068302;28;20382;-85
2022/04/29 07:58:40;;;;;;;7.43;3.63;;;22.30;99.90;;;;;;5067181;28;20366;-85
2022/04/29 08:01:09;;;;;;;52.60;45.50;;;22.30;99.90;;;;;;5063421;28;20734;-85
2022/04/29 08:03:38;;;;;;;311.63;277.60;;;22.20;99.90;;;;;;5066315;28;20375;-85
2022/04/29 08:06:07;;;;;;;145.82;115.40;;;22.10;99.90;;;;;;5068045;28;20749;-86
2022/04/29 08:08:35;;;;;;;103.97;83.07;;;22.00;99.90;;;;;;5067590;28;20386;-85
2022/04/29 08:11:02;;;;;;;53.88;39.60;;;22.00;99.90;;;;;;5067464;28;20386;-84
2022/04/29 08:13:30;;;;;;;25.43;18.70;;;21.90;99.90;;;;;;5067682;28;20487;-82
2022/04/29 08:15:59;;;;;;;18.20;11.82;;;21.90;99.90;;;;;;5067306;28;20394;-83
2022/04/29 08:18:28;;;;;;;13.55;10.68;;;21.80;99.90;;;;;;5067732;28;20382;-82
2022/04/29 08:20:56;;;;;;;10.68;7.03;;;21.80;99.90;;;;;;5067262;28;20406;-83
2022/04/29 08:23:23;;;;;;;7.20;4.68;;;21.70;99.90;;;;;;5067335;28;20481;-83
2022/04/29 08:25:50;;;;;;;4.90;2.97;;;21.70;99.90;;;;;;5067418;28;20468;-82
2022/04/29 08:28:18;;;;;;;7.70;4.07;;;21.60;99.90;;;;;;5066246;28;20391;-83
2022/04/29 08:30:46;;;;;;;5.95;3.80;;;21.60;99.90;;;;;;5066894;28;20398;-82
2022/04/29 08:33:14;;;;;;;5.53;3.60;;;21.60;99.90;;;;;;5066787;28;20378;-81
2022/04/29 08:35:41;;;;;;;7.50;4.40;;;21.50;99.90;;;;;;5066933;28;20390;-81
2022/04/29 08:38:11;;;;;;;4.50;3.33;;;21.50;99.90;;;;;;5066469;28;20465;-84
2022/04/29 08:40:46;;;;;;;6.70;5.35;;;21.40;99.90;;;;;;5066105;28;20492;-84
2022/04/29 08:43:17;;;;;;;5.15;3.05;;;21.40;99.90;;;;;;5062871;28;20428;-83
2022/04/29 08:45:44;;;;;;;5.35;2.92;;;21.40;99.90;;;;;;5067364;28;20767;-82
2022/04/29 08:48:12;;;;;;;6.50;3.70;;;21.30;99.90;;;;;;5066092;28;20394;-88
2022/04/29 08:50:39;;;;;;;6.72;4.07;;;21.30;99.90;;;;;;5065722;28;20467;-85
2022/04/29 08:53:15;;;;;;;7.65;4.75;;;21.30;99.90;;;;;;5065869;28;20453;-84
2022/04/29 08:58:43;;;;;;;10.45;5.15;;;21.20;99.90;;;;;;5065067;28;20393;-83
2022/04/29 09:01:16;;;;;;;9.00;5.10;;;21.20;99.90;;;;;;5065094;28;20417;-85
2022/04/29 09:03:44;;;;;;;7.17;4.03;;;21.20;99.90;;;;;;5065250;28;20491;-84
2022/04/29 09:06:12;;;;;;;6.47;4.25;;;21.10;99.90;;;;;;5066690;28;20431;-83
2022/04/29 09:08:41;;;;;;;5.68;3.55;;;21.10;99.90;;;;;;5066637;28;21028;-87
2022/04/29 09:11:09;;;;;;;5.85;3.40;;;21.10;99.90;;;;;;5066701;28;20404;-82
2022/04/29 09:13:38;;;;;;;5.88;3.40;;;21.10;99.90;;;;;;5066528;28;20401;-83
2022/04/29 09:16:12;;;;;;;5.25;3.50;;;21.00;99.90;;;;;;5066726;28;20489;-85
2022/04/29 09:18:50;;;;;;;6.28;3.50;;;21.00;99.90;;;;;;5063043;28;20382;-82
2022/04/29 09:21:25;;;;;;;4.80;3.45;;;21.00;99.90;;;;;;5055723;28;20405;-89
2022/04/29 09:23:57;;;;;;;5.63;3.25;;;21.00;99.90;;;;;;5063680;28;20382;-82
2022/04/29 09:26:29;;;;;;;4.93;3.42;;;21.10;99.90;;;;;;5060831;28;20397;-82
2022/04/29 09:29:17;;;;;;;6.85;3.28;;;21.00;99.90;;;;;;5062001;28;20417;-83
2022/04/29 09:31:54;;;;;;;5.65;3.13;;;21.00;99.90;;;;;;5063341;28;20890;-81
2022/04/29 09:34:22;;;;;;;3.15;2.40;;;21.10;99.90;;;;;;5066374;28;20507;-82
2022/04/29 09:36:52;;;;;;;4.80;2.55;;;21.10;99.90;;;;;;5066549;28;20370;-82
2022/04/29 09:39:28;;;;;;;5.88;2.83;;;21.10;99.90;;;;;;5065868;28;20398;-82
2022/04/29 09:42:05;;;;;;;5.87;3.30;;;21.10;99.90;;;;;;5060882;28;20396;-82
2022/04/29 09:44:34;;;;;;;4.95;2.80;;;21.20;99.90;;;;;;5061127;28;20396;-82
2022/04/29 09:47:11;;;;;;;5.05;2.72;;;21.20;99.90;;;;;;5061054;28;20408;-82
2022/04/29 09:49:38;;;;;;;6.05;2.65;;;21.30;99.90;;;;;;5061938;28;20409;-81
2022/04/29 09:52:07;;;;;;;4.93;3.22;;;21.40;99.90;;;;;;5068527;28;20378;-82
2022/04/29 09:54:37;;;;;;;3.78;2.80;;;21.50;99.90;;;;;;5066461;28;20414;-82
2022/04/29 09:57:13;;;;;;;4.05;2.88;;;21.50;99.90;;;;;;5065468;28;20386;-83
2022/04/29 09:59:58;;;;;;;5.13;2.70;;;21.50;99.90;;;;;;5063342;28;20826;-83
2022/04/29 10:02:26;;;;;;;8.13;3.10;;;21.50;99.90;;;;;;5065763;28;20409;-83
2022/04/29 10:04:55;;;;;;;5.72;3.28;;;21.50;99.90;;;;;;5066006;28;20382;-83
2022/04/29 10:07:23;;;;;;;5.53;2.50;;;21.50;99.90;;;;;;5066166;28;20796;-83
2022/04/29 10:09:55;;;;;;;5.07;2.40;;;21.50;99.90;;;;;;5065419;28;20378;-82
2022/04/29 10:12:24;;;;;;;4.18;2.28;;;21.50;99.90;;;;;;5065174;28;20493;-82
2022/04/29 10:14:59;;;;;;;4.60;2.38;;;21.60;99.90;;;;;;5065723;28;20464;-82
2022/04/29 10:23:13;;;;;;;4.53;2.38;;;21.60;99.90;;;;;;5067705;28;20466;-82
2022/04/29 10:25:45;;;;;;;4.25;2.40;;;21.70;99.90;;;;;;5069338;28;20757;-82
2022/04/29 10:28:18;;;;;;;3.70;2.30;;;21.70;99.90;;;;;;5069327;28;20967;-83
2022/04/29 10:30:59;;;;;;;4.40;2.20;;;21.70;99.90;;;;;;5069761;28;20545;-82
2022/04/29 10:33:26;;;;;;;4.55;2.20;;;21.60;99.90;;;;;;5053640;28;20738;-82
2022/04/29 10:35:56;;;;;;;3.78;2.22;;;21.60;99.90;;;;;;5069447;28;20397;-82
2022/04/29 10:38:34;;;;;;;4.38;2.10;;;21.50;99.90;;;;;;5065475;28;20383;-81
2022/04/29 10:41:07;;;;;;;4.07;2.13;;;21.50;99.90;;;;;;5065266;28;20413;-82
2022/04/29 10:43:38;;;;;;;4.10;2.30;;;21.40;99.90;;;;;;5069167;28;20381;-81
2022/04/29 10:46:05;;;;;;;4.10;2.47;;;21.40;99.90;;;;;;5069020;28;20429;-82
2022/04/29 10:48:40;;;;;;;4.50;2.20;;;21.30;99.90;;;;;;5069372;28;20399;-83
2022/04/29 10:51:25;;;;;;;3.58;2.50;;;21.30;99.90;;;;;;5069417;28;20395;-82
2022/04/29 10:53:55;;;;;;;5.32;2.60;;;21.20;99.90;;;;;;5068748;28;20369;-82
2022/04/29 10:56:31;;;;;;;4.80;2.60;;;21.10;99.90;;;;;;5069356;28;20394;-81
2022/04/29 10:59:11;;;;;;;6.22;2.60;;;21.10;99.90;;;;;;5067431;28;20758;-81
2022/04/29 11:01:40;;;;;;;4.57;2.50;;;21.00;99.90;;;;;;5066984;28;20493;-82
2022/04/29 11:04:08;;;;;;;5.70;2.33;;;21.00;99.90;;;;;;5066583;28;20378;-82
2022/04/29 11:06:47;;;;;;;3.17;2.45;;;21.00;99.90;;;;;;5068382;28;20420;-82
2022/04/29 11:09:47;;;;;;;4.60;2.75;;;21.00;99.90;;;;;;5068464;28;21396;-82
2022/04/29 11:12:39;;;;;;;5.28;2.50;;;21.00;99.90;;;;;;5068332;28;21256;-82
2022/04/29 11:15:16;;;;;;;4.72;2.50;;;21.00;99.90;;;;;;5068128;28;20890;-80
2022/04/29 11:17:44;;;;;;;3.63;2.55;;;21.00;99.90;;;;;;5068435;28;20382;-82
2022/04/29 11:20:20;;;;;;;6.35;2.40;;;21.00;99.90;;;;;;5067914;28;20409;-82
2022/04/29 11:25:59;;;;;;;4.72;2.35;;;21.00;99.90;;;;;;5067682;28;20969;-81
2022/04/29 11:28:27;;;;;;;4.38;2.40;;;21.00;99.90;;;;;;5070004;28;20473;-81
2022/04/29 11:31:08;;;;;;;3.60;2.30;;;21.00;99.90;;;;;;5067979;28;20393;-82
2022/04/29 11:33:39;;;;;;;3.13;2.13;;;21.00;99.90;;;;;;5067104;28;20386;-81
2022/04/29 11:36:11;;;;;;;4.05;2.10;;;21.10;99.90;;;;;;5070587;28;20409;-83
2022/04/29 11:38:46;;;;;;;4.32;2.10;;;21.00;99.90;;;;;;5069113;28;20378;-82
2022/04/29 11:41:21;;;;;;;4.88;2.08;;;21.10;99.90;;;;;;5068005;28;20747;-83
2022/04/29 11:43:54;;;;;;;3.60;2.20;;;21.10;99.90;;;;;;5067637;28;20381;-81
2022/04/29 11:46:22;;;;;;;3.40;1.92;;;21.10;99.90;;;;;;5067763;28;20405;-82
2022/04/29 11:48:53;;;;;;;4.13;1.80;;;21.10;99.90;;;;;;5068011;28;21178;-81
2022/04/29 11:51:21;;;;;;;3.85;2.00;;;21.10;99.90;;;;;;5068104;28;20393;-81
2022/04/29 11:53:58;;;;;;;3.90;1.93;;;21.10;99.90;;;;;;5067132;28;20415;-82
2022/04/29 11:56:45;;;;;;;2.88;1.75;;;21.10;99.90;;;;;;5067865;28;20451;-82
2022/04/29 11:59:12;;;;;;;3.38;1.90;;;21.10;99.90;;;;;;5065369;28;20793;-82
2022/04/29 12:01:41;;;;;;;3.58;2.20;;;21.00;99.90;;;;;;5067091;28;20496;-82
2022/04/29 12:04:13;;;;;;;3.72;2.22;;;21.00;99.90;;;;;;5066316;28;20501;-82
2022/04/29 12:06:57;;;;;;;3.50;2.10;;;20.90;99.90;;;;;;5067083;28;20382;-82
2022/04/29 12:09:34;;;;;;;4.20;2.10;;;20.90;99.90;;;;;;5062620;28;20385;-81
2022/04/29 12:12:01;;;;;;;3.72;2.10;;;20.90;99.90;;;;;;5066977;28;20414;-81
2022/04/29 12:14:29;;;;;;;4.40;2.08;;;20.90;99.90;;;;;;5067003;28;20803;-82
2022/04/29 12:16:56;;;;;;;3.42;2.15;;;20.90;99.90;;;;;;5066816;28;20394;-82
2022/04/29 12:19:23;;;;;;;3.88;2.00;;;20.90;99.90;;;;;;5067402;28;20386;-82
2022/04/29 12:21:56;;;;;;;3.88;1.90;;;20.90;99.90;;;;;;5066522;28;20406;-82
2022/04/29 12:24:24;;;;;;;3.50;1.60;;;21.00;99.90;;;;;;5067373;28;20386;-82
2022/04/29 12:27:09;;;;;;;3.63;1.73;;;21.00;99.90;;;;;;5066597;28;20382;-82
2022/04/29 12:34:48;;;;;;;3.22;1.73;;;21.00;99.90;;;;;;5067014;28;20378;-82
2022/04/29 12:35:14;;;;;;;2.55;1.80;;;21.10;99.90;;;;;;5065446;28;20397;-82
2022/04/29 12:37:49;;;;;;;5.13;1.88;;;21.10;99.90;;;;;;5066970;28;20499;-82
2022/04/29 12:40:16;;;;;;;3.13;1.70;;;21.10;99.90;;;;;;5065881;28;20430;-82
2022/04/29 12:42:43;;;;;;;3.58;1.85;;;21.10;99.90;;;;;;5066376;28;20785;-82
2022/04/29 12:45:14;;;;;;;2.15;1.60;;;21.10;99.90;;;;;;5065863;28;20370;-82
2022/04/29 12:47:49;;;;;;;3.38;1.90;;;21.10;99.90;;;;;;5066300;28;20385;-83
2022/04/29 12:50:20;;;;;;;3.13;1.87;;;21.10;99.90;;;;;;5065435;28;20416;-82
2022/04/29 12:53:09;;;;;;;4.97;1.90;;;21.00;99.90;;;;;;5065586;28;20407;-82
2022/04/29 12:55:42;;;;;;;2.53;1.60;;;21.00;99.90;;;;;;5066413;28;20921;-82
2022/04/29 12:58:17;;;;;;;3.72;1.90;;;21.00;99.90;;;;;;5066078;28;20382;-82
2022/04/29 13:00:57;;;;;;;2.78;1.80;;;20.90;99.90;;;;;;5066435;28;20410;-82
2022/04/29 13:03:26;;;;;;;3.20;1.90;;;20.90;99.90;;;;;;5066621;28;20394;-82
2022/04/29 13:05:54;;;;;;;3.88;2.00;;;20.90;99.90;;;;;;5065920;28;20398;-83
2022/04/29 13:08:24;;;;;;;2.92;1.90;;;20.90;99.90;;;;;;5067119;28;20367;-82
2022/04/29 13:10:54;;;;;;;2.78;2.00;;;20.90;99.90;;;;;;5066244;28;20979;-82
2022/04/29 13:13:23;;;;;;;4.15;2.05;;;20.90;99.90;;;;;;5065989;28;20382;-82
2022/04/29 13:15:50;;;;;;;3.28;2.00;;;21.00;99.90;;;;;;5066535;28;20473;-82
2022/04/29 13:18:19;;;;;;;3.40;2.08;;;21.00;99.90;;;;;;5066793;28;20377;-83
2022/04/29 13:20:47;;;;;;;4.13;1.92;;;21.10;99.90;;;;;;5065616;28;20402;-83
2022/04/29 13:23:14;;;;;;;3.53;2.10;;;21.10;99.90;;;;;;5065382;28;20909;-83
2022/04/29 13:25:43;;;;;;;4.72;2.00;;;21.10;99.90;;;;;;5065024;28;20761;-81
2022/04/29 13:28:11;;;;;;;4.53;1.90;;;21.10;99.90;;;;;;5066142;28;20378;-81
2022/04/29 13:30:39;;;;;;;2.58;1.88;;;21.20;99.90;;;;;;5065440;28;20452;-81